Time;durP1;ratioP1;P1;durP2;ratioP2;P2;SDS_P1;SDS_P2;PMS_P1;PMS_P2;Temp;Humidity;BMP_temperature;BMP_pressure;BME280_temperature;BME280_humidity;BME280_pressure;Samples;Min_cycle;Max_cycle;Signal;HPM_P1;HPM_P2
2021/12/13 00:00:57;;;;;;;5.35;3.13;;;17.70;52.00;;;;;;5024890;28;20032;-58
2021/12/13 00:03:30;;;;;;;4.43;3.40;;;17.70;51.40;;;;;;5023474;28;20033;-57
2021/12/13 00:06:04;;;;;;;4.50;2.88;;;17.70;51.40;;;;;;5024695;28;21291;-58
2021/12/13 00:08:34;;;;;;;4.47;3.10;;;17.70;51.40;;;;;;5023278;28;20087;-59
2021/12/13 00:11:16;;;;;;;4.30;2.63;;;17.70;51.40;;;;;;5023773;28;20036;-58
2021/12/13 00:13:46;;;;;;;4.38;2.88;;;17.70;51.40;;;;;;5021850;28;20037;-58
2021/12/13 00:16:12;;;;;;;3.22;2.50;;;17.70;51.40;;;;;;5024049;28;20045;-59
2021/12/13 00:18:41;;;;;;;4.05;2.80;;;17.70;51.40;;;;;;5024396;28;20115;-58
2021/12/13 00:21:14;;;;;;;3.85;2.25;;;17.70;51.40;;;;;;5024445;28;20030;-56
2021/12/13 00:23:54;;;;;;;4.78;3.10;;;17.70;51.50;;;;;;5024592;28;20708;-56
2021/12/13 00:26:23;;;;;;;4.03;2.58;;;17.70;51.50;;;;;;5024489;28;20033;-54
2021/12/13 00:28:48;;;;;;;2.92;2.17;;;17.60;51.50;;;;;;5022928;28;20083;-57
2021/12/13 00:31:36;;;;;;;3.47;2.38;;;17.70;51.50;;;;;;5025184;28;20061;-53
2021/12/13 00:34:22;;;;;;;3.25;2.65;;;17.60;51.50;;;;;;5024954;28;20033;-56
2021/12/13 00:36:51;;;;;;;3.30;2.30;;;17.60;51.60;;;;;;5025337;28;20029;-56
2021/12/13 00:39:32;;;;;;;4.85;2.55;;;17.60;51.50;;;;;;5020070;28;20037;-58
2021/12/13 00:41:57;;;;;;;3.55;2.42;;;17.60;51.50;;;;;;5023576;28;20032;-57
2021/12/13 00:44:27;;;;;;;3.45;2.25;;;17.60;51.60;;;;;;5020181;28;20488;-55
2021/12/13 00:46:53;;;;;;;2.88;2.03;;;17.60;51.60;;;;;;5024015;28;20554;-57
2021/12/13 00:49:22;;;;;;;2.75;2.33;;;17.60;51.50;;;;;;5020785;28;20053;-58
2021/12/13 00:51:49;;;;;;;3.05;2.58;;;17.60;51.60;;;;;;5024136;28;20022;-58
2021/12/13 00:54:33;;;;;;;4.97;2.15;;;17.60;51.70;;;;;;5024253;28;20072;-57
2021/12/13 00:57:02;;;;;;;4.00;2.28;;;17.60;51.70;;;;;;5018513;28;20323;-52
2021/12/13 00:59:36;;;;;;;3.03;1.90;;;17.60;51.70;;;;;;5023798;28;20678;-57
2021/12/13 01:02:28;;;;;;;2.22;1.92;;;17.60;51.70;;;;;;5023288;28;20120;-57
2021/12/13 01:04:59;;;;;;;3.88;2.15;;;17.60;51.60;;;;;;5022777;28;20562;-55
2021/12/13 01:07:33;;;;;;;2.33;1.95;;;17.60;51.60;;;;;;5024257;28;20415;-55
2021/12/13 01:10:17;;;;;;;2.65;1.80;;;17.60;51.70;;;;;;5016353;28;20033;-53
2021/12/13 01:12:44;;;;;;;2.65;1.92;;;17.60;51.70;;;;;;5024373;28;20108;-55
2021/12/13 01:15:16;;;;;;;2.85;1.83;;;17.60;51.70;;;;;;5022820;28;20029;-54
2021/12/13 01:20:32;;;;;;;2.47;1.63;;;17.60;51.60;;;;;;5022008;28;24745;-56
2021/12/13 01:23:08;;;;;;;3.40;2.10;;;17.60;51.70;;;;;;5024057;28;20818;-55
2021/12/13 01:26:00;;;;;;;2.40;1.90;;;17.60;51.60;;;;;;5024130;28;20083;-54
2021/12/13 01:28:31;;;;;;;2.15;1.60;;;17.60;51.70;;;;;;5020487;28;20109;-57
2021/12/13 01:31:07;;;;;;;2.03;1.67;;;17.60;51.70;;;;;;5023683;28;20033;-58
2021/12/13 01:33:32;;;;;;;3.53;1.85;;;17.60;51.70;;;;;;5023647;28;20037;-56
2021/12/13 01:36:00;;;;;;;1.65;1.38;;;17.60;51.80;;;;;;5024259;28;20037;-54
2021/12/13 01:38:33;;;;;;;3.42;1.63;;;17.60;51.90;;;;;;5025018;28;20025;-58
2021/12/13 01:41:01;;;;;;;2.97;1.90;;;17.50;51.70;;;;;;5022015;28;20645;-54
2021/12/13 01:43:29;;;;;;;3.47;1.77;;;17.60;51.80;;;;;;5023434;28;20037;-57
2021/12/13 01:45:55;;;;;;;2.28;1.60;;;17.60;51.70;;;;;;5023987;28;20527;-54
2021/12/13 01:48:27;;;;;;;2.10;1.67;;;17.50;51.70;;;;;;5023739;28;20520;-55
2021/12/13 01:51:04;;;;;;;2.53;1.60;;;17.60;51.80;;;;;;5023266;28;20088;-57
2021/12/13 01:53:33;;;;;;;1.98;1.60;;;17.50;51.70;;;;;;5022285;28;20500;-57
2021/12/13 01:56:00;;;;;;;1.75;1.52;;;17.50;51.70;;;;;;5022761;28;20401;-55
2021/12/13 01:58:37;;;;;;;2.08;1.40;;;17.50;51.80;;;;;;5022694;28;20068;-60
2021/12/13 02:01:09;;;;;;;2.08;1.67;;;17.50;51.80;;;;;;5023116;28;20488;-57
2021/12/13 02:03:55;;;;;;;3.00;2.05;;;17.50;51.80;;;;;;5023342;28;20059;-49
2021/12/13 02:06:46;;;;;;;2.22;1.60;;;17.50;51.80;;;;;;5023103;28;20705;-58
2021/12/13 02:09:18;;;;;;;2.15;1.70;;;17.50;51.80;;;;;;5022412;28;20033;-52
2021/12/13 02:11:45;;;;;;;2.55;1.77;;;17.50;52.00;;;;;;5021601;28;20033;-53
2021/12/13 02:14:15;;;;;;;2.15;1.60;;;17.50;51.80;;;;;;5022241;28;20041;-51
2021/12/13 02:19:43;;;;;;;2.88;1.70;;;17.50;51.80;;;;;;5023065;28;20033;-58
2021/12/13 02:22:32;;;;;;;2.17;1.73;;;17.50;51.80;;;;;;5015705;28;20029;-55
2021/12/13 02:25:01;;;;;;;2.60;1.77;;;17.50;52.40;;;;;;5033755;28;20063;-58
2021/12/13 02:27:29;;;;;;;1.33;1.23;;;17.50;51.80;;;;;;5023482;28;20511;-51
2021/12/13 02:29:56;;;;;;;1.90;1.70;;;17.50;51.90;;;;;;5023701;28;20476;-54
2021/12/13 02:32:25;;;;;;;1.95;1.70;;;17.50;51.80;;;;;;5022821;28;20049;-58
2021/12/13 02:34:50;;;;;;;2.03;1.77;;;17.50;51.90;;;;;;5021438;28;20500;-56
2021/12/13 02:37:16;;;;;;;1.67;1.40;;;17.50;51.80;;;;;;5021729;28;20057;-56
2021/12/13 02:39:44;;;;;;;2.30;1.80;;;17.50;51.80;;;;;;5019908;28;20060;-52
2021/12/13 02:42:11;;;;;;;2.03;1.52;;;17.50;51.80;;;;;;5022069;28;20413;-56
2021/12/13 02:44:43;;;;;;;2.13;1.55;;;17.50;51.80;;;;;;5021825;28;20397;-56
2021/12/13 02:47:13;;;;;;;2.38;1.98;;;17.50;51.90;;;;;;5022032;28;20385;-57
2021/12/13 02:49:39;;;;;;;1.65;1.40;;;17.50;51.90;;;;;;5020682;28;20584;-54
2021/12/13 02:52:07;;;;;;;2.03;1.48;;;17.50;51.80;;;;;;5022002;28;20034;-53
2021/12/13 02:54:37;;;;;;;2.97;1.50;;;17.50;51.80;;;;;;5020785;28;20421;-54
2021/12/13 02:57:16;;;;;;;1.88;1.63;;;17.50;51.80;;;;;;5022062;28;20037;-54
2021/12/13 02:59:44;;;;;;;1.60;1.50;;;17.50;51.80;;;;;;5019129;28;20026;-55
2021/12/13 03:02:20;;;;;;;1.77;1.52;;;17.50;51.80;;;;;;5022299;28;20029;-53
2021/12/13 03:04:47;;;;;;;2.22;1.60;;;17.50;51.90;;;;;;5021772;28;21505;-54
2021/12/13 03:07:15;;;;;;;1.80;1.48;;;17.50;51.90;;;;;;5022443;28;20065;-55
2021/12/13 03:09:41;;;;;;;2.65;1.60;;;17.50;51.90;;;;;;5019380;28;20029;-55
2021/12/13 03:12:09;;;;;;;1.48;1.27;;;17.50;51.90;;;;;;5005897;28;20053;-57
2021/12/13 03:14:41;;;;;;;1.60;1.30;;;17.50;52.00;;;;;;5019455;28;20063;-55
2021/12/13 03:17:21;;;;;;;4.07;1.77;;;17.50;52.00;;;;;;5016299;28;20034;-55
2021/12/13 03:20:05;;;;;;;2.55;1.55;;;17.50;52.00;;;;;;5019620;28;20041;-57
2021/12/13 03:23:08;;;;;;;1.98;1.40;;;17.50;52.00;;;;;;5018134;28;20041;-58
2021/12/13 03:25:36;;;;;;;3.10;1.45;;;17.50;52.00;;;;;;5025283;28;20654;-50
2021/12/13 03:28:11;;;;;;;2.05;1.50;;;17.50;52.00;;;;;;5023993;28;20404;-55
2021/12/13 03:30:55;;;;;;;2.40;1.70;;;17.50;52.00;;;;;;5024052;28;20037;-58
2021/12/13 03:33:29;;;;;;;1.55;1.33;;;17.50;52.00;;;;;;5024439;28;20053;-56
2021/12/13 03:35:56;;;;;;;1.92;1.42;;;17.50;52.00;;;;;;5021837;28;20579;-56
2021/12/13 03:38:36;;;;;;;1.70;1.40;;;17.50;52.10;;;;;;5024527;28;20049;-56
2021/12/13 03:41:05;;;;;;;1.42;1.10;;;17.40;52.10;;;;;;5022905;28;20450;-57
2021/12/13 03:43:46;;;;;;;2.20;1.33;;;17.40;52.10;;;;;;5025404;28;20041;-54
2021/12/13 03:46:13;;;;;;;3.33;1.40;;;17.40;52.10;;;;;;5023387;28;20029;-53
2021/12/13 03:48:39;;;;;;;1.30;1.20;;;17.40;52.10;;;;;;5025281;28;20060;-53
2021/12/13 03:51:08;;;;;;;1.83;1.45;;;17.40;52.10;;;;;;5021503;28;20034;-54
2021/12/13 03:53:34;;;;;;;1.65;1.25;;;17.40;52.10;;;;;;5023625;28;20041;-55
2021/12/13 03:56:07;;;;;;;1.95;1.30;;;17.40;52.20;;;;;;5023831;28;20036;-52
2021/12/13 03:58:36;;;;;;;1.48;1.30;;;17.40;52.10;;;;;;5023815;28;20029;-55
2021/12/13 04:01:07;;;;;;;1.55;1.17;;;17.40;52.20;;;;;;5024406;28;20091;-59
2021/12/13 04:03:33;;;;;;;1.77;1.20;;;17.40;52.20;;;;;;5025313;28;20069;-55
2021/12/13 04:05:59;;;;;;;1.88;1.05;;;17.40;52.20;;;;;;5023479;28;20026;-57
2021/12/13 04:08:24;;;;;;;1.35;1.02;;;17.40;52.20;;;;;;5025164;28;20040;-54
2021/12/13 04:10:53;;;;;;;2.30;1.40;;;17.40;52.20;;;;;;5026676;28;20026;-53
2021/12/13 04:13:21;;;;;;;1.40;1.27;;;17.40;52.20;;;;;;5025297;28;20033;-56
2021/12/13 04:19:06;;;;;;;3.50;1.20;;;17.40;52.20;;;;;;5029463;28;20067;-50
2021/12/13 04:21:25;;;;;;;2.13;1.10;;;17.40;52.30;;;;;;5022807;28;20065;-57
2021/12/13 04:23:55;;;;;;;1.60;1.17;;;17.40;52.30;;;;;;5025101;28;20038;-55
2021/12/13 04:26:20;;;;;;;2.47;1.27;;;17.30;52.30;;;;;;5024655;28;20040;-54
2021/12/13 04:28:48;;;;;;;1.63;1.10;;;17.30;52.30;;;;;;5022982;28;20030;-54
2021/12/13 04:31:17;;;;;;;1.00;0.95;;;17.30;52.30;;;;;;5022447;28;20041;-58
2021/12/13 04:33:47;;;;;;;1.58;1.00;;;17.30;52.30;;;;;;5024311;28;20041;-51
2021/12/13 04:36:14;;;;;;;1.63;1.05;;;17.30;52.40;;;;;;5022746;28;20644;-53
2021/12/13 04:39:12;;;;;;;1.85;1.20;;;17.30;52.40;;;;;;5023723;28;20068;-55
2021/12/13 04:41:41;;;;;;;0.95;0.85;;;17.30;52.50;;;;;;5022215;28;20030;-54
2021/12/13 04:44:52;;;;;;;1.42;0.85;;;17.30;52.50;;;;;;5022722;28;20040;-53
2021/12/13 04:47:23;;;;;;;1.85;1.42;;;17.30;52.50;;;;;;5022883;28;20033;-56
2021/12/13 04:50:07;;;;;;;1.33;0.90;;;17.20;52.50;;;;;;5024089;28;20484;-56
2021/12/13 04:52:33;;;;;;;1.98;1.10;;;17.30;52.50;;;;;;5019688;28;20041;-55
2021/12/13 04:54:59;;;;;;;1.33;1.00;;;17.20;52.50;;;;;;5023859;28;20041;-56
2021/12/13 04:57:25;;;;;;;1.67;0.90;;;17.30;52.50;;;;;;5023049;28;20064;-55
2021/12/13 04:59:53;;;;;;;1.83;0.95;;;17.30;52.50;;;;;;5024128;28;20033;-52
2021/12/13 05:02:18;;;;;;;1.15;1.00;;;17.30;52.50;;;;;;5021054;28;20718;-56
2021/12/13 05:04:44;;;;;;;1.00;0.90;;;17.30;52.50;;;;;;5024292;28;20030;-55
2021/12/13 05:07:09;;;;;;;1.58;1.17;;;17.30;53.10;;;;;;5022095;28;20032;-54
2021/12/13 05:09:36;;;;;;;1.38;1.00;;;17.30;52.40;;;;;;5023909;28;20041;-53
2021/12/13 05:12:01;;;;;;;1.17;1.08;;;17.40;52.40;;;;;;5020795;28;20025;-51
2021/12/13 05:14:50;;;;;;;1.67;1.05;;;17.40;52.30;;;;;;5023877;28;20034;-53
2021/12/13 05:17:21;;;;;;;1.30;1.05;;;17.40;52.20;;;;;;5018923;28;20041;-58
2021/12/13 05:19:58;;;;;;;1.70;1.23;;;17.50;52.20;;;;;;5050722;22;20056;-62
2021/12/13 05:22:24;;;;;;;4.15;1.25;;;17.50;52.10;;;;;;5031874;28;20591;-57
2021/12/13 05:24:56;;;;;;;2.78;1.15;;;17.50;52.10;;;;;;5044490;28;20032;-64
2021/12/13 05:27:31;;;;;;;2.65;1.70;;;17.50;52.10;;;;;;5041925;28;20100;-64
2021/12/13 05:30:07;;;;;;;4.47;1.75;;;17.60;52.10;;;;;;5029375;28;20021;-63
2021/12/13 05:32:36;;;;;;;3.83;1.50;;;17.60;52.00;;;;;;5025317;28;20022;-64
2021/12/13 05:35:14;;;;;;;2.67;1.30;;;17.60;52.10;;;;;;5026322;28;20576;-64
2021/12/13 05:37:41;;;;;;;3.90;1.95;;;17.60;52.00;;;;;;5027738;28;20030;-64
2021/12/13 05:40:10;;;;;;;2.88;1.80;;;17.70;52.00;;;;;;5024436;28;20087;-63
2021/12/13 05:42:45;;;;;;;3.38;1.70;;;17.70;52.10;;;;;;5024740;28;20021;-59
2021/12/13 05:45:16;;;;;;;3.65;1.67;;;17.70;52.00;;;;;;5025560;28;20021;-60
2021/12/13 05:48:09;;;;;;;3.53;1.98;;;17.70;52.10;;;;;;5024919;28;20053;-61
2021/12/13 05:50:37;;;;;;;3.17;1.88;;;17.70;52.00;;;;;;5015285;28;20038;-64
2021/12/13 05:53:12;;;;;;;6.28;2.42;;;17.70;52.10;;;;;;5025458;28;20050;-62
2021/12/13 05:55:47;;;;;;;6.80;1.90;;;17.80;52.20;;;;;;5024980;28;20492;-64
2021/12/13 05:58:12;;;;;;;3.80;2.23;;;17.80;52.10;;;;;;5025218;28;20893;-64
2021/12/13 06:00:38;;;;;;;9.00;3.15;;;17.80;52.20;;;;;;5025207;28;20101;-63
2021/12/13 06:03:16;;;;;;;5.90;2.97;;;17.80;52.20;;;;;;5025709;28;20089;-64
2021/12/13 06:05:52;;;;;;;6.05;3.78;;;17.80;52.20;;;;;;5025513;28;20043;-64
2021/12/13 06:08:25;;;;;;;10.32;3.80;;;17.80;52.20;;;;;;5027334;28;20033;-67
2021/12/13 06:10:59;;;;;;;7.35;3.60;;;17.80;52.20;;;;;;5020206;28;20104;-63
2021/12/13 06:13:43;;;;;;;9.02;4.05;;;17.80;52.20;;;;;;5026510;28;20064;-62
2021/12/13 06:16:18;;;;;;;7.82;4.05;;;17.80;52.20;;;;;;5026053;28;20030;-65
2021/12/13 06:19:02;;;;;;;10.63;4.45;;;17.80;52.30;;;;;;5025923;28;20037;-65
2021/12/13 06:21:49;;;;;;;9.95;4.40;;;17.80;52.20;;;;;;5025752;28;20513;-63
2021/12/13 06:24:22;;;;;;;8.20;4.60;;;17.80;52.20;;;;;;5026550;28;20044;-65
2021/12/13 06:26:47;;;;;;;9.60;5.22;;;17.80;52.10;;;;;;5027370;28;20021;-64
2021/12/13 06:29:13;;;;;;;10.90;4.75;;;17.80;52.10;;;;;;5025947;28;20055;-63
2021/12/13 06:31:40;;;;;;;10.57;5.03;;;17.80;52.10;;;;;;5024036;28;20486;-63
2021/12/13 06:34:08;;;;;;;14.07;5.97;;;17.80;52.10;;;;;;5023632;28;20711;-62
2021/12/13 06:36:37;;;;;;;17.25;10.40;;;17.80;52.20;;;;;;5024063;28;20037;-63
2021/12/13 06:39:09;;;;;;;25.05;12.38;;;17.80;52.50;;;;;;5023588;28;20026;-63
2021/12/13 06:41:38;;;;;;;23.13;13.02;;;17.80;52.60;;;;;;5023043;28;20022;-66
2021/12/13 06:44:06;;;;;;;20.08;11.55;;;17.80;52.60;;;;;;5023758;28;20041;-65
2021/12/13 06:46:42;;;;;;;25.48;12.80;;;17.80;52.50;;;;;;5023365;28;20110;-64
2021/12/13 06:49:17;;;;;;;22.60;14.73;;;17.80;52.50;;;;;;5023521;28;20049;-64
2021/12/13 06:52:08;;;;;;;37.13;18.25;;;17.80;53.70;;;;;;5023832;28;20052;-61
2021/12/13 06:54:48;;;;;;;29.30;18.38;;;17.80;54.20;;;;;;5023373;28;20037;-62
2021/12/13 06:57:21;;;;;;;34.42;19.35;;;17.80;53.90;;;;;;5022169;28;20037;-64
2021/12/13 07:00:08;;;;;;;30.65;18.00;;;17.80;54.30;;;;;;5023125;28;20034;-65
2021/12/13 07:02:51;;;;;;;27.67;17.10;;;17.80;54.40;;;;;;5022831;28;20033;-62
2021/12/13 07:05:22;;;;;;;31.67;16.83;;;17.80;54.40;;;;;;5023584;28;20040;-63
2021/12/13 07:08:05;;;;;;;29.95;16.10;;;17.70;54.30;;;;;;5023665;28;20660;-63
2021/12/13 07:10:35;;;;;;;26.85;16.00;;;17.70;54.60;;;;;;5022232;28;20580;-69
2021/12/13 07:13:27;;;;;;;19.60;14.50;;;17.80;54.60;;;;;;5024008;28;20041;-66
2021/12/13 07:16:02;;;;;;;22.35;12.10;;;17.80;54.40;;;;;;5016678;28;20052;-68
2021/12/13 07:18:37;;;;;;;14.80;10.45;;;17.80;54.10;;;;;;5023328;28;20099;-65
2021/12/13 07:21:03;;;;;;;17.30;10.32;;;17.70;54.00;;;;;;5024770;28;20776;-67
2021/12/13 07:23:52;;;;;;;12.15;9.05;;;17.70;53.90;;;;;;5030165;28;20030;-67
2021/12/13 07:26:35;;;;;;;8.65;6.30;;;17.70;53.70;;;;;;5018593;28;20033;-70
2021/12/13 07:29:03;;;;;;;13.02;7.18;;;17.60;53.50;;;;;;5013732;28;20041;-62
2021/12/13 07:31:29;;;;;;;13.02;7.43;;;17.60;53.70;;;;;;5026777;28;20033;-61
2021/12/13 07:34:05;;;;;;;10.13;6.05;;;17.60;53.80;;;;;;5031781;28;20037;-64
2021/12/13 07:36:30;;;;;;;10.15;5.82;;;17.50;53.80;;;;;;5030903;28;20033;-63
2021/12/13 07:38:58;;;;;;;6.68;4.47;;;17.50;53.90;;;;;;5032841;28;20048;-65
2021/12/13 07:41:27;;;;;;;7.70;4.70;;;17.50;53.90;;;;;;5028811;28;20045;-65
2021/12/13 07:43:52;;;;;;;6.90;4.28;;;17.50;54.00;;;;;;5027890;28;20171;-66
2021/12/13 07:46:17;;;;;;;6.15;4.07;;;17.50;54.10;;;;;;5026356;28;21500;-62
2021/12/13 07:48:43;;;;;;;5.95;3.90;;;17.50;54.10;;;;;;5029549;28;20045;-61
2021/12/13 07:51:15;;;;;;;6.70;3.45;;;17.50;54.10;;;;;;5030315;28;20596;-62
2021/12/13 07:53:48;;;;;;;6.80;3.45;;;17.50;54.10;;;;;;5028996;28;20513;-60
2021/12/13 07:56:20;;;;;;;6.40;3.33;;;17.50;54.10;;;;;;5031139;28;20041;-68
2021/12/13 07:58:49;;;;;;;5.35;3.55;;;17.50;54.10;;;;;;5033473;28;20033;-65
2021/12/13 08:01:17;;;;;;;9.05;3.55;;;17.50;54.10;;;;;;5034805;28;20112;-66
2021/12/13 08:03:44;;;;;;;5.35;3.20;;;17.50;54.20;;;;;;5041440;28;20041;-64
2021/12/13 08:06:09;;;;;;;5.72;2.88;;;17.50;54.30;;;;;;5033036;28;20041;-61
2021/12/13 08:08:35;;;;;;;6.97;2.80;;;17.50;54.30;;;;;;5029312;28;20030;-67
2021/12/13 08:11:02;;;;;;;8.20;3.45;;;17.50;54.30;;;;;;5037536;28;20036;-65
2021/12/13 08:13:30;;;;;;;5.95;3.45;;;17.50;54.30;;;;;;5036252;28;20037;-64
2021/12/13 08:15:55;;;;;;;5.72;2.53;;;17.40;54.30;;;;;;5028685;28;20029;-69
2021/12/13 08:18:30;;;;;;;4.88;2.67;;;17.50;54.30;;;;;;5034834;28;20040;-62
2021/12/13 08:20:58;;;;;;;4.15;3.40;;;17.50;54.40;;;;;;5031912;28;20041;-65
2021/12/13 08:23:36;;;;;;;5.82;2.70;;;17.50;54.30;;;;;;5026642;28;20502;-65
2021/12/13 08:26:03;;;;;;;6.22;2.78;;;17.40;54.30;;;;;;5024897;28;20033;-64
2021/12/13 08:28:44;;;;;;;7.93;2.70;;;17.40;54.30;;;;;;5024153;28;20033;-64
2021/12/13 08:31:11;;;;;;;6.43;2.60;;;17.50;54.40;;;;;;5024940;28;20535;-65
2021/12/13 08:33:40;;;;;;;6.35;3.13;;;17.50;54.30;;;;;;5026524;28;20502;-65
2021/12/13 08:36:07;;;;;;;6.13;3.05;;;17.50;54.40;;;;;;5026074;28;20026;-64
2021/12/13 08:38:47;;;;;;;5.07;2.58;;;17.50;54.30;;;;;;5024896;28;20060;-64
2021/12/13 08:41:20;;;;;;;5.80;2.70;;;17.50;54.30;;;;;;5025711;28;20025;-64
2021/12/13 08:44:04;;;;;;;4.40;2.40;;;17.50;54.30;;;;;;5025826;28;20034;-64
2021/12/13 08:46:43;;;;;;;2.88;1.98;;;17.50;54.20;;;;;;5025283;28;20057;-65
2021/12/13 08:49:25;;;;;;;5.50;2.40;;;17.50;54.20;;;;;;5025287;28;20025;-64
2021/12/13 08:52:04;;;;;;;3.78;2.38;;;17.50;54.10;;;;;;5025399;28;20035;-64
2021/12/13 08:54:53;;;;;;;5.57;2.03;;;17.60;54.10;;;;;;5025521;28;20057;-61
2021/12/13 08:57:44;;;;;;;3.17;2.25;;;17.60;54.00;;;;;;5024790;28;20065;-64
2021/12/13 09:00:13;;;;;;;3.28;2.22;;;17.60;53.90;;;;;;5024411;28;20076;-64
2021/12/13 09:02:41;;;;;;;4.70;2.20;;;17.70;54.00;;;;;;5025369;28;20045;-62
2021/12/13 09:05:17;;;;;;;4.18;2.30;;;17.60;53.90;;;;;;5025889;28;20026;-64
2021/12/13 09:07:51;;;;;;;6.68;2.65;;;17.70;53.90;;;;;;5025253;28;20021;-65
2021/12/13 09:10:17;;;;;;;5.18;2.50;;;17.70;54.00;;;;;;5023866;28;20034;-67
2021/12/13 09:12:45;;;;;;;3.47;2.17;;;17.60;54.00;;;;;;5026382;28;20041;-66
2021/12/13 09:15:23;;;;;;;3.60;2.30;;;17.70;54.00;;;;;;5025387;28;20029;-65
2021/12/13 09:17:50;;;;;;;3.40;2.35;;;17.70;54.10;;;;;;5023536;28;20041;-64
2021/12/13 09:20:22;;;;;;;4.63;2.40;;;17.70;54.10;;;;;;5022733;28;20041;-63
2021/12/13 09:23:06;;;;;;;7.30;2.83;;;17.70;54.10;;;;;;5023513;28;20041;-62
2021/12/13 09:25:44;;;;;;;5.80;2.25;;;17.70;54.10;;;;;;5021214;28;20428;-61
2021/12/13 09:28:27;;;;;;;5.00;2.50;;;17.70;54.20;;;;;;5024304;28;20061;-63
2021/12/13 09:31:00;;;;;;;4.30;2.30;;;17.70;54.90;;;;;;5023037;28;20040;-63
2021/12/13 09:33:34;;;;;;;7.13;2.55;;;17.60;54.20;;;;;;5019317;28;20033;-63
2021/12/13 09:36:01;;;;;;;4.22;2.30;;;17.70;54.30;;;;;;5017938;28;20055;-64
2021/12/13 09:38:45;;;;;;;6.57;2.40;;;17.70;54.40;;;;;;5024628;28;20079;-63
2021/12/13 09:41:33;;;;;;;3.75;1.95;;;17.60;54.40;;;;;;5024317;28;20053;-63
2021/12/13 09:44:11;;;;;;;2.78;2.05;;;17.70;54.50;;;;;;5024484;28;20029;-62
2021/12/13 09:46:46;;;;;;;3.22;2.10;;;17.60;54.50;;;;;;5024481;28;20029;-63
2021/12/13 09:49:23;;;;;;;5.03;2.43;;;17.60;54.40;;;;;;5022446;28;20033;-65
2021/12/13 09:51:59;;;;;;;5.13;2.03;;;17.60;54.40;;;;;;5023662;28;20036;-65
2021/12/13 09:54:28;;;;;;;2.78;1.80;;;17.60;54.30;;;;;;5023869;28;20026;-59
2021/12/13 09:56:53;;;;;;;3.13;2.10;;;17.60;54.30;;;;;;5024634;28;20029;-63
2021/12/13 09:59:34;;;;;;;3.05;2.22;;;17.70;54.30;;;;;;5022867;28;20576;-64
2021/12/13 10:02:04;;;;;;;4.43;1.60;;;17.60;54.20;;;;;;5017947;28;20040;-65
2021/12/13 10:04:36;;;;;;;3.03;1.85;;;17.70;54.20;;;;;;5023726;28;20025;-62
2021/12/13 10:07:11;;;;;;;2.83;1.70;;;17.60;54.70;;;;;;5023728;28;20071;-65
2021/12/13 10:09:41;;;;;;;;;;;17.70;54.20;;;;;;5024686;28;20034;-61
2021/12/13 10:12:23;;;;;;;3.13;2.00;;;17.70;54.50;;;;;;5023782;28;19909;-64
2021/12/13 10:14:55;;;;;;;3.78;2.08;;;17.70;54.70;;;;;;5022748;28;20042;-63
2021/12/13 10:17:22;;;;;;;4.13;1.73;;;17.70;54.90;;;;;;5021614;28;21314;-65
2021/12/13 10:19:50;;;;;;;3.33;1.77;;;17.70;55.50;;;;;;5025525;28;20497;-62
2021/12/13 10:22:17;;;;;;;3.22;2.10;;;17.70;55.20;;;;;;5026813;28;20049;-60
2021/12/13 10:25:17;;;;;;;6.07;1.73;;;17.70;55.20;;;;;;5026618;28;20083;-62
2021/12/13 10:27:43;;;;;;;4.32;1.70;;;17.70;55.10;;;;;;5020978;28;20033;-61
2021/12/13 10:30:30;;;;;;;3.40;1.55;;;17.70;54.90;;;;;;5023005;28;20124;-62
2021/12/13 10:32:55;;;;;;;2.10;1.50;;;17.70;55.00;;;;;;5022359;28;20105;-60
2021/12/13 10:35:33;;;;;;;1.90;1.50;;;17.70;55.20;;;;;;5026891;28;20100;-62
2021/12/13 10:38:04;;;;;;;3.35;1.70;;;17.70;55.20;;;;;;5026066;28;20437;-61
2021/12/13 10:40:42;;;;;;;1.45;1.33;;;17.70;55.10;;;;;;5025303;28;20022;-61
2021/12/13 10:43:10;;;;;;;2.63;1.33;;;17.70;55.10;;;;;;5026273;28;20055;-61
2021/12/13 10:45:42;;;;;;;4.28;1.35;;;17.70;55.20;;;;;;5026283;28;20036;-61
2021/12/13 10:48:09;;;;;;;1.98;1.58;;;17.70;55.20;;;;;;5026035;28;20498;-61
2021/12/13 10:50:43;;;;;;;2.90;1.60;;;17.70;55.20;;;;;;5026127;28;20037;-61
2021/12/13 10:53:10;;;;;;;3.92;1.50;;;17.70;55.00;;;;;;5026530;28;20460;-61
2021/12/13 10:55:46;;;;;;;2.65;1.30;;;17.70;55.00;;;;;;5024723;28;20037;-63
2021/12/13 10:58:16;;;;;;;4.45;1.77;;;17.70;55.00;;;;;;5024625;28;20029;-61
2021/12/13 11:00:45;;;;;;;3.35;1.63;;;17.80;55.10;;;;;;5025850;28;20038;-62
2021/12/13 11:03:14;;;;;;;1.95;1.00;;;17.80;54.90;;;;;;5025457;28;20048;-59
2021/12/13 11:05:40;;;;;;;1.65;1.25;;;17.90;54.80;;;;;;5025801;28;20022;-61
2021/12/13 11:08:06;;;;;;;3.90;1.25;;;17.90;54.80;;;;;;5025702;28;20039;-62
2021/12/13 11:10:35;;;;;;;1.63;1.05;;;18.00;54.70;;;;;;5025408;28;20120;-59
2021/12/13 11:13:02;;;;;;;4.50;1.38;;;17.90;54.70;;;;;;5026275;28;20057;-60
2021/12/13 11:15:32;;;;;;;3.90;1.05;;;17.90;54.80;;;;;;5024659;28;20030;-61
2021/12/13 11:17:58;;;;;;;3.72;1.58;;;17.90;54.90;;;;;;5025574;28;20037;-59
2021/12/13 11:20:32;;;;;;;4.35;1.48;;;17.80;54.90;;;;;;5043491;22;20488;-62
2021/12/13 11:22:58;;;;;;;1.88;1.17;;;17.90;54.90;;;;;;5044673;28;20071;-63
2021/12/13 11:25:26;;;;;;;3.15;1.17;;;17.80;54.90;;;;;;5043920;28;20114;-63
2021/12/13 11:27:51;;;;;;;4.22;1.30;;;17.80;54.90;;;;;;5044904;28;20029;-62
2021/12/13 11:30:20;;;;;;;2.05;1.60;;;17.80;55.00;;;;;;5042487;28;20033;-64
2021/12/13 11:32:58;;;;;;;3.97;1.50;;;17.80;55.00;;;;;;5024881;28;20030;-62
2021/12/13 11:36:01;;;;;;;1.70;1.42;;;17.80;55.00;;;;;;5026333;28;20555;-62
2021/12/13 11:39:01;;;;;;;1.77;0.93;;;17.70;55.00;;;;;;5022844;28;20037;-63
2021/12/13 11:41:56;;;;;;;2.10;1.10;;;17.70;54.90;;;;;;5024820;28;20661;-62
2021/12/13 11:44:28;;;;;;;2.25;1.30;;;17.70;55.00;;;;;;5026762;28;20029;-62
2021/12/13 11:47:30;;;;;;;1.83;1.05;;;17.70;55.00;;;;;;5029343;28;20029;-62
2021/12/13 11:50:08;;;;;;;2.67;1.50;;;17.70;54.90;;;;;;5021632;28;20128;-62
2021/12/13 11:52:42;;;;;;;2.83;1.15;;;17.80;54.90;;;;;;5029722;28;20025;-63
2021/12/13 11:55:29;;;;;;;1.77;1.00;;;17.80;54.80;;;;;;5030158;28;20501;-62
2021/12/13 11:58:13;;;;;;;2.10;1.35;;;17.80;54.70;;;;;;5029826;28;20022;-64
2021/12/13 12:01:16;;;;;;;3.05;1.38;;;17.80;54.70;;;;;;5029249;28;20075;-63
2021/12/13 12:04:03;;;;;;;1.60;1.15;;;17.70;54.70;;;;;;5029795;28;20072;-62
2021/12/13 12:07:05;;;;;;;1.73;1.15;;;17.70;54.70;;;;;;5029670;28;20026;-59
2021/12/13 12:09:39;;;;;;;2.10;1.13;;;17.70;54.80;;;;;;5029943;28;20034;-62
2021/12/13 12:12:43;;;;;;;1.60;1.10;;;17.70;54.90;;;;;;5031553;28;20140;-63
2021/12/13 12:15:09;;;;;;;2.40;1.20;;;17.70;54.90;;;;;;5031015;28;20029;-62
2021/12/13 12:17:35;;;;;;;3.28;1.00;;;17.70;54.90;;;;;;5031373;28;20033;-62
2021/12/13 12:20:00;;;;;;;1.48;1.00;;;17.70;55.00;;;;;;5031810;28;20583;-63
2021/12/13 12:22:52;;;;;;;1.20;1.00;;;17.70;55.00;;;;;;5033315;28;20404;-64
2021/12/13 12:25:19;;;;;;;1.15;0.98;;;17.70;55.00;;;;;;5026834;28;20478;-63
2021/12/13 12:27:45;;;;;;;1.90;1.00;;;17.70;55.00;;;;;;5031633;28;20033;-63
2021/12/13 12:30:22;;;;;;;1.35;0.90;;;17.70;55.00;;;;;;5027404;28;20453;-63
2021/12/13 12:32:51;;;;;;;3.60;1.15;;;17.70;55.00;;;;;;5027944;28;20029;-61
2021/12/13 12:35:30;;;;;;;0.80;0.77;;;17.70;55.00;;;;;;5027331;28;20152;-63
2021/12/13 12:37:56;;;;;;;1.75;0.77;;;17.60;55.00;;;;;;5044026;28;20284;-62
2021/12/13 12:40:40;;;;;;;1.10;1.00;;;17.60;55.10;;;;;;5026879;28;20389;-62
2021/12/13 12:43:08;;;;;;;3.60;1.38;;;17.70;55.20;;;;;;5028221;28;20483;-62
2021/12/13 12:45:37;;;;;;;3.88;0.90;;;17.60;55.10;;;;;;5028338;28;20052;-63
2021/12/13 12:48:12;;;;;;;1.67;0.98;;;17.60;55.30;;;;;;5027155;28;20037;-63
2021/12/13 12:50:45;;;;;;;1.33;0.85;;;17.60;55.20;;;;;;5028666;28;20030;-62
2021/12/13 12:53:22;;;;;;;1.20;0.90;;;17.60;55.30;;;;;;5028793;28;20032;-62
2021/12/13 12:55:59;;;;;;;1.52;1.00;;;17.60;55.30;;;;;;5027070;28;20048;-61
2021/12/13 12:58:30;;;;;;;1.02;0.93;;;17.60;55.30;;;;;;5023603;28;20379;-62
2021/12/13 13:00:58;;;;;;;2.35;0.93;;;17.60;55.40;;;;;;5009803;28;20033;-62
2021/12/13 13:03:30;;;;;;;1.35;0.95;;;17.60;55.40;;;;;;5027453;28;20045;-63
2021/12/13 13:06:15;;;;;;;1.20;0.90;;;17.60;55.40;;;;;;5026441;28;20033;-62
2021/12/13 13:08:43;;;;;;;1.50;1.00;;;17.60;55.50;;;;;;5027528;28;20026;-62
2021/12/13 13:14:03;;;;;;;2.08;1.00;;;17.60;55.40;;;;;;5016985;28;20032;-63
2021/12/13 13:16:34;;;;;;;1.95;1.15;;;17.60;55.40;;;;;;5027781;28;20021;-63
2021/12/13 13:19:00;;;;;;;1.98;0.98;;;17.60;55.50;;;;;;5026061;28;20511;-62
2021/12/13 13:21:26;;;;;;;1.10;1.00;;;17.60;55.40;;;;;;5026352;28;20152;-64
2021/12/13 13:23:55;;;;;;;2.20;1.13;;;17.60;55.40;;;;;;5010176;28;20034;-63
2021/12/13 13:26:21;;;;;;;1.67;1.35;;;17.60;55.40;;;;;;5026380;28;20083;-62
2021/12/13 13:28:53;;;;;;;1.25;0.80;;;17.60;55.40;;;;;;5027386;28;20025;-62